Fédération internationale de Ski
Member Section
Print

OFFICIAL RESULTS

Hemsedal (NOR) 26.04.2017

FIS Race - Ladies' Super G

Race codex : 6105
Valid for FIS Points : YES
1 files available



Jury
TD FIS LANG ROINE SWE
Referee Hallgeir VOGNHILL NOR
Assistant Referee ANDREAS KOLLENBORG NOR
Chief of Race Kenneth LARSEN NOR
Technical Data
Start Altitude 1280 m.
Finish Altitude 690 m.
Vertical Drop 590 m.
Course Length 0 m.
Homologation Number 12199/11/16
Run 1
Course Setter TYLER CONRAD USA
Number of Gates 37
Start Time 0800
 
Show more info»

Competitors

Display filter form
Rank Bib FIS Code Name Year Nation Total Time Diff. FIS Points
 1  6  426257 LIE Kajsa Vickhoff  1998  NOR   1:08.24     17.76
 2  1  426262 SELVAAG Josefine  1998  NOR   1:08.53  +0.29  22.35
 3  5  425981 SKJOELD Maren  1993  NOR   1:08.59  +0.35  23.30
 4  11  426187 LYSDAHL Kristin  1996  NOR   1:08.87  +0.63  27.73
 5  3  426199 HVAMMEN Guro  1997  NOR   1:08.91  +0.67  28.36
 6  15  425921 HAUGEN Kristine Gjelsten  1992  NOR   1:09.13  +0.89  31.85
 7  2  506860 LUTHMAN Jonna  1998  SWE   1:09.18  +0.94  32.64
 8  22  255367 VILHJALMSDOTTIR Helga Maria  1995  ISL   1:09.43  +1.19  36.59
 8  13  435334 GASIENICA-DANIEL Maryna  1994  POL   1:09.43  +1.19  36.59
 10  14  426273 SAETHERENG Hannah  1999  NOR   1:09.52  +1.28  38.02
 11  9  426324 MONSEN Marte  2000  NOR   1:09.57  +1.33  38.81
 12  19  506915 DAHLIN Agnes  1999  SWE   1:09.58  +1.34  38.97
 12  4  426236 BEKKESTAD Kristiane  1998  NOR   1:09.58  +1.34  38.97
 14  7  426193 STJERNESUND Thea Louise  1996  NOR   1:09.69  +1.45  40.71
 15  8  555036 ABOLTINA Agnese  1996  LAT   1:09.86  +1.62  43.40
 16  17  506793 GUNNARSTEDT Nadja  1997  SWE   1:09.89  +1.65  43.87
 17  12  426293 KUFAAS Mariel  1999  NOR   1:09.90  +1.66  44.03
 18  16  506109 GUNNARSTEDT Rebecca  1991  SWE   1:10.19  +1.95  48.62
 19  27  507011 LOEVBLOM Hilma  2000  SWE   1:10.55  +2.31  54.32
 20  36  705469 NEMCOVA Klaudia  2000  SVK   1:10.56  +2.32  54.48
 21  41  426318 TELJE Elise  2000  NOR   1:10.74  +2.50  57.33
 22  20  426131 ENGESET Eirin Linnea  1995  NOR   1:10.75  +2.51  57.48
 23  26  705460 JANCOVA Tereza  1999  SVK   1:10.79  +2.55  58.12
 24  10  506890 AXELSSON Fanny  1998  SWE   1:10.80  +2.56  58.28
 25  29  426301 HORGEN Catharina Astrup  1999  NOR   1:10.82  +2.58  58.59
 26  30  426298 OVERAAS Frida  1999  NOR   1:10.88  +2.64  59.54
 27  25  426327 KRISTOFFERSEN Helene  2000  NOR   1:11.19  +2.95  64.45
 28  35  426311 FALKSETE Ylva Tone  2000  NOR   1:11.21  +2.97  64.76
 29  21  426285 MAARSTOEL Andrine  1999  NOR   1:11.40  +3.16  67.77
 30  50  426323 WEMBSTAD Inni Holm  2000  NOR   1:11.44  +3.20  68.40
 31  28  225641 CLISSOLD Honor  1997  GBR   1:11.50  +3.26  69.35
 32  33  426281 AANDAL Marthe Toesse  1999  NOR   1:11.58  +3.34  70.62
 33  24  506713 FINN Jennifer  1996  SWE   1:11.61  +3.37  71.10
 34  32  426243 ROEYNSTRAND Elise  1998  NOR   1:11.86  +3.62  75.05
 35  38  426299 VARNE Bergitte  1999  NOR   1:11.88  +3.64  75.37
 36  58  507021 ROENNBERG Matilda  2000  SWE   1:11.96  +3.72  76.63
 36  23  506864 OLSSON Lisa  1998  SWE   1:11.96  +3.72  76.63
 38  37  426247 STAVSETH Veslemoey Kihle  1998  NOR   1:12.26  +4.02  81.38
 39  44  185410 MANTYLA Jenny-Juulia  1996  FIN   1:12.33  +4.09  82.49
 40  51  507023 SCHWALBE Alexandra  2000  SWE   1:12.41  +4.17  83.76
 41  45  426278 RABO Mina Sofie  1999  NOR   1:13.05  +4.81  93.89
 42  47  426326 MOLTZAU Serine  2000  NOR   1:13.21  +4.97  96.42
 43  59  426316 KROGH Madeleine  2000  NOR   1:13.27  +5.03  97.37
 44  43  426302 TORGERSEN Astrid Storaker  1999  NOR   1:13.38  +5.14  99.11
 45  57  705475 STRIZENCOVA Michaela  2000  SVK   1:13.47  +5.23  100.53
 46  48  426277 LARSEN Andrea Skaaland  1999  NOR   1:13.68  +5.44  103.86
 47  49  426325 MELBYE Karen Tjelta  2000  NOR   1:13.72  +5.48  104.49
 48  53  255403 BIRKISDOTTIR Andrea Bjork  1998  ISL   1:13.78  +5.54  105.44
 49  40  175056 BROENS Ida Sofie Bunsov  1999  DEN   1:13.81  +5.57  105.91
 50  42  426309 STAVSETH Emma Kihle  2000  NOR   1:13.99  +5.75  108.76
 51  39  426274 HERDLEVAER Marie Bartnes  1999  NOR   1:14.46  +6.22  116.20
 52  56  185465 ENHOLM Anna  2000  FIN   1:14.84  +6.60  122.21
 53  46  426305 ROSTADSAND Synne Johanne Eikeland  1999  NOR   1:15.41  +7.17  131.24
 54  52  426270 BERGE Ylva  1999  NOR   1:15.75  +7.51  136.62
 55  54  395022 JOGEVA Anna Lotta  1999  EST   1:16.25  +8.01  144.53
 56  55  426308 KOJEN Aurora  2000  NOR   1:16.34  +8.10  145.95
 57  60  426329 TORGERSEN Mina  2000  NOR   1:16.93  +8.69  155.29
Did not finish 1st run
   34  506885 TENGBOM Lisa  1998  SWE       
   31  506945 LINDBLOM My  1999  SWE       
   18  426254 HAMNES Ingrid  1998  NOR